Time;durP1;ratioP1;P1;durP2;ratioP2;P2;SDS_P1;SDS_P2;PMS_P1;PMS_P2;Temp;Humidity;BMP_temperature;BMP_pressure;BME280_temperature;BME280_humidity;BME280_pressure;Samples;Min_cycle;Max_cycle;Signal;HPM_P1;HPM_P2
2022/08/28 00:01:00;;;;;;;15.90;12.13;;;16.40;99.90;;;15.84;100.00;98018.09;4980160;28;20051;-67
2022/08/28 00:03:27;;;;;;;18.23;14.10;;;16.40;99.90;;;15.81;100.00;98024.38;4980272;28;20146;-67
2022/08/28 00:05:56;;;;;;;15.75;13.13;;;16.40;99.90;;;15.70;100.00;98029.31;4978406;28;20536;-67
2022/08/28 00:08:23;;;;;;;17.48;13.32;;;16.40;99.90;;;15.74;100.00;98028.25;4980970;28;20141;-67
2022/08/28 00:10:50;;;;;;;15.50;13.27;;;16.40;99.90;;;15.71;100.00;98033.66;4981693;28;20080;-67
2022/08/28 00:13:21;;;;;;;18.90;13.70;;;16.30;99.90;;;15.64;100.00;98033.13;4979176;28;20058;-67
2022/08/28 00:15:56;;;;;;;19.10;12.50;;;16.30;99.90;;;15.69;100.00;98032.84;4983123;28;20049;-68
2022/08/28 00:18:25;;;;;;;15.52;12.70;;;16.30;99.90;;;15.74;100.00;98037.91;4981354;28;20575;-66
2022/08/28 00:20:52;;;;;;;16.50;12.50;;;16.30;99.90;;;15.79;100.00;98039.31;4977262;28;20046;-67
2022/08/28 00:23:21;;;;;;;20.30;13.18;;;16.40;99.90;;;15.77;100.00;98040.34;4981261;28;20050;-68
2022/08/28 00:25:48;;;;;;;16.17;13.35;;;16.40;99.90;;;15.78;100.00;98044.63;4978094;28;20060;-67
2022/08/28 00:28:16;;;;;;;14.40;12.90;;;16.40;99.90;;;15.78;100.00;98044.63;4977243;28;20415;-68
2022/08/28 00:30:54;;;;;;;16.83;13.82;;;16.40;99.90;;;15.78;100.00;98044.63;4981798;28;20051;-67
2022/08/28 00:33:29;;;;;;;16.45;13.73;;;16.40;99.90;;;15.85;100.00;98038.97;4983971;28;20043;-68
2022/08/28 00:35:57;;;;;;;16.42;13.20;;;16.50;99.90;;;15.95;100.00;98046.31;4983384;28;20043;-68
2022/08/28 00:38:26;;;;;;;17.92;13.57;;;16.50;99.90;;;16.00;100.00;98042.47;4985161;28;20066;-67
2022/08/28 00:41:01;;;;;;;17.08;13.55;;;16.50;99.90;;;15.98;100.00;98053.97;5001119;28;20048;-68
2022/08/28 00:43:41;;;;;;;17.75;13.35;;;16.60;99.90;;;15.98;100.00;98043.50;4986661;28;20046;-68
2022/08/28 00:46:19;;;;;;;18.58;12.75;;;16.60;99.90;;;16.05;100.00;98060.53;4982787;28;20415;-68
2022/08/28 00:48:47;;;;;;;17.48;13.32;;;16.60;99.90;;;16.04;100.00;98054.47;4986476;28;20121;-68
2022/08/28 00:54:05;;;;;;;18.27;12.88;;;16.70;99.90;;;16.16;100.00;98062.56;4999478;28;20081;-67
2022/08/28 00:56:37;;;;;;;16.58;12.07;;;16.70;99.90;;;16.21;100.00;98057.88;4983251;28;20580;-68
2022/08/28 00:59:17;;;;;;;15.48;11.48;;;16.80;99.90;;;16.31;100.00;98083.47;5000213;28;20426;-67
2022/08/28 01:01:47;;;;;;;14.35;11.25;;;16.80;99.90;;;16.34;100.00;98094.72;4984446;28;20050;-67
2022/08/28 01:04:17;;;;;;;13.90;11.80;;;16.80;99.90;;;16.26;100.00;98097.75;4980274;28;20050;-68
2022/08/28 01:06:47;;;;;;;12.95;9.90;;;16.80;99.90;;;16.27;100.00;98113.38;4984239;28;20416;-68
2022/08/28 01:09:14;;;;;;;13.63;10.32;;;16.80;99.90;;;16.29;100.00;98129.88;4981940;28;20156;-68
2022/08/28 01:11:49;;;;;;;10.85;8.82;;;16.90;99.90;;;16.33;100.00;98143.66;4982698;28;20050;-67
2022/08/28 01:14:21;;;;;;;15.80;11.30;;;16.90;99.90;;;16.25;100.00;98151.09;5000454;28;20517;-67
2022/08/28 01:16:54;;;;;;;12.57;10.07;;;16.90;99.90;;;16.31;100.00;98166.47;4983176;28;20508;-68
2022/08/28 01:19:39;;;;;;;15.98;10.60;;;16.90;99.90;;;16.24;100.00;98163.34;4981981;28;20128;-67
2022/08/28 01:22:37;;;;;;;14.95;9.05;;;17.00;99.90;;;16.29;100.00;98182.25;4996253;28;20049;-68
2022/08/28 01:25:15;;;;;;;12.10;8.77;;;17.00;99.90;;;16.41;100.00;98179.88;4983140;28;20424;-67
2022/08/28 01:27:42;;;;;;;13.77;9.88;;;17.00;99.90;;;16.44;100.00;98184.94;4978715;28;20057;-68
2022/08/28 01:30:13;;;;;;;11.93;8.40;;;17.10;99.90;;;16.52;100.00;98190.59;4978777;28;20074;-68
2022/08/28 01:32:50;;;;;;;12.65;9.80;;;17.10;99.90;;;16.41;100.00;98187.75;4979721;28;20146;-67
2022/08/28 01:35:24;;;;;;;15.77;9.40;;;17.10;99.90;;;16.45;100.00;98189.25;4980691;28;20532;-67
2022/08/28 01:37:54;;;;;;;14.75;8.63;;;17.20;99.90;;;16.46;100.00;98194.41;4976798;28;20137;-67
2022/08/28 01:40:35;;;;;;;14.52;9.05;;;17.20;99.90;;;16.52;100.00;98199.28;4978229;28;20050;-67
2022/08/28 01:43:16;;;;;;;9.98;7.93;;;17.20;99.90;;;16.50;100.00;98195.06;4980083;28;20049;-67
2022/08/28 01:45:50;;;;;;;11.77;8.85;;;17.10;99.90;;;16.48;100.00;98195.16;4976639;28;20065;-68
2022/08/28 01:48:20;;;;;;;15.25;8.82;;;17.10;99.90;;;16.38;100.00;98195.78;4969916;28;20190;-68
2022/08/28 01:50:47;;;;;;;11.60;8.07;;;17.00;99.90;;;16.38;100.00;98194.00;4982171;28;20080;-67
2022/08/28 01:53:18;;;;;;;13.52;9.45;;;17.00;99.90;;;16.36;100.00;98197.63;4979961;28;20061;-67
2022/08/28 01:55:53;;;;;;;10.93;8.55;;;17.00;99.90;;;16.37;100.00;98196.69;4982065;28;20051;-67
2022/08/28 01:58:21;;;;;;;13.20;8.80;;;17.00;99.90;;;16.33;100.00;98196.03;4980612;28;20055;-68
2022/08/28 02:00:48;;;;;;;15.70;9.35;;;17.00;99.90;;;16.28;100.00;98193.69;4983825;28;21214;-67
2022/08/28 02:03:15;;;;;;;13.63;9.57;;;16.90;99.90;;;16.32;100.00;98194.34;4982667;28;20049;-67
2022/08/28 02:05:42;;;;;;;16.25;9.88;;;16.90;99.90;;;16.29;100.00;98194.53;4977182;28;20068;-68
2022/08/28 02:08:09;;;;;;;12.00;10.10;;;16.90;99.90;;;16.29;100.00;98195.34;4981999;28;20078;-68
2022/08/28 02:10:39;;;;;;;12.45;9.48;;;16.90;99.90;;;16.32;100.00;98191.72;4980002;28;20060;-67
2022/08/28 02:13:07;;;;;;;9.70;8.70;;;17.00;99.90;;;16.43;100.00;98196.38;4983599;28;20460;-68
2022/08/28 02:15:35;;;;;;;12.20;8.85;;;17.00;99.90;;;16.42;100.00;98202.50;4982300;28;20054;-68
2022/08/28 02:18:04;;;;;;;11.60;8.73;;;17.00;99.90;;;16.48;100.00;98194.31;4980206;28;20050;-67
2022/08/28 02:20:32;;;;;;;13.57;9.25;;;17.00;99.90;;;16.36;100.00;98188.00;4977679;28;20078;-68
2022/08/28 02:23:00;;;;;;;13.48;8.77;;;17.10;99.90;;;16.39;100.00;98190.44;4979068;28;20085;-69
2022/08/28 02:25:28;;;;;;;9.70;8.13;;;17.10;99.90;;;16.41;100.00;98188.56;4979481;28;20377;-67
2022/08/28 02:27:56;;;;;;;11.13;8.27;;;17.00;99.90;;;16.45;100.00;98184.03;4976673;28;20069;-67
2022/08/28 02:30:23;;;;;;;9.35;8.10;;;17.00;99.90;;;16.25;100.00;98188.59;4977901;28;20058;-67
2022/08/28 02:32:51;;;;;;;11.25;9.02;;;17.00;99.90;;;16.23;100.00;98181.75;4976167;28;20050;-68
2022/08/28 02:35:21;;;;;;;13.10;8.45;;;17.00;99.90;;;16.34;100.00;98181.16;4978026;28;20093;-66
2022/08/28 02:37:48;;;;;;;12.63;8.43;;;17.00;99.90;;;16.36;100.00;98184.53;4977290;28;20688;-67
2022/08/28 02:40:20;;;;;;;9.63;7.00;;;17.10;99.90;;;16.41;100.00;98190.34;4981319;28;20046;-67
2022/08/28 02:42:48;;;;;;;8.05;7.25;;;17.00;99.90;;;16.42;100.00;98192.91;4979792;28;20145;-67
2022/08/28 02:45:16;;;;;;;9.88;6.82;;;17.00;99.90;;;16.49;100.00;98182.91;4984305;28;20053;-68
2022/08/28 02:47:45;;;;;;;12.07;7.28;;;17.00;99.90;;;16.52;100.00;98186.19;4980483;28;20053;-68
2022/08/28 02:50:16;;;;;;;9.18;6.80;;;17.00;99.90;;;16.59;100.00;98185.84;4979321;28;20126;-67
2022/08/28 02:52:43;;;;;;;9.00;6.45;;;17.10;99.90;;;16.59;100.00;98189.31;4964466;28;20054;-68
2022/08/28 02:55:14;;;;;;;11.13;6.32;;;17.10;99.90;;;16.55;100.00;98186.94;4980451;28;20125;-67
2022/08/28 02:57:42;;;;;;;12.07;8.20;;;17.10;99.90;;;16.48;100.00;98187.28;4975808;28;20053;-67
2022/08/28 03:00:13;;;;;;;10.40;6.97;;;17.10;99.90;;;16.40;100.00;98184.28;4980747;28;20520;-67
2022/08/28 03:02:41;;;;;;;10.00;7.18;;;17.10;99.90;;;16.33;100.00;98180.31;4978284;28;20053;-66
2022/08/28 03:05:09;;;;;;;8.88;7.03;;;17.00;99.90;;;16.30;100.00;98181.31;4982799;28;20088;-67
2022/08/28 03:07:36;;;;;;;10.52;6.85;;;17.00;99.90;;;16.31;100.00;98176.94;4981612;28;20132;-68
2022/08/28 03:10:06;;;;;;;11.15;6.90;;;17.00;99.90;;;16.36;100.00;98179.31;4979464;28;20057;-67
2022/08/28 03:12:34;;;;;;;10.40;7.05;;;17.00;99.90;;;16.35;100.00;98183.66;4982853;28;20191;-68
2022/08/28 03:15:01;;;;;;;10.52;7.28;;;16.90;99.90;;;16.31;100.00;98176.94;4983354;28;20049;-67
2022/08/28 03:17:29;;;;;;;10.25;6.57;;;17.00;99.90;;;16.42;100.00;98182.41;4981221;28;20077;-66
2022/08/28 03:19:56;;;;;;;7.63;6.35;;;17.00;99.90;;;16.47;100.00;98190.03;4979768;28;20388;-67
2022/08/28 03:23:25;;;;;;;9.50;7.38;;;17.00;99.90;;;16.41;100.00;98185.97;4977975;28;20133;-67
2022/08/28 03:25:11;;;;;;;11.93;8.23;;;17.00;99.90;;;16.37;100.00;98181.81;4977889;28;20046;-68
2022/08/28 03:27:38;;;;;;;11.35;8.88;;;17.00;99.90;;;16.34;100.00;98187.25;4979036;28;20124;-68
2022/08/28 03:30:07;;;;;;;13.90;8.65;;;17.00;99.90;;;16.21;100.00;98168.72;4981594;28;20069;-67
2022/08/28 03:32:35;;;;;;;9.57;7.50;;;16.90;99.90;;;16.20;100.00;98177.53;4982727;28;20109;-68
2022/08/28 03:35:04;;;;;;;10.45;8.18;;;16.90;99.90;;;16.16;100.00;98177.78;4976738;28;20054;-67
2022/08/28 03:37:31;;;;;;;8.93;7.60;;;16.80;99.90;;;16.21;100.00;98173.97;4982142;28;20109;-68
2022/08/28 03:39:59;;;;;;;12.32;8.65;;;16.90;99.90;;;16.16;100.00;98169.94;4980452;28;20422;-68
2022/08/28 03:42:26;;;;;;;12.27;9.13;;;16.90;99.90;;;16.22;100.00;98182.69;4984192;28;20471;-68
2022/08/28 03:44:53;;;;;;;11.55;7.90;;;16.90;99.90;;;16.22;100.00;98180.06;4978782;28;20137;-68
2022/08/28 03:47:21;;;;;;;8.82;7.93;;;16.90;99.90;;;16.23;100.00;98181.75;4981826;28;20145;-67
2022/08/28 03:49:55;;;;;;;10.55;7.95;;;16.90;99.90;;;16.34;100.00;98182.00;4977582;28;20542;-68
2022/08/28 03:52:22;;;;;;;9.80;6.75;;;16.90;99.90;;;16.37;100.00;98189.69;4981638;28;20076;-67
2022/08/28 03:54:50;;;;;;;9.88;7.20;;;16.90;99.90;;;16.39;100.00;98190.44;4977050;28;20054;-68
2022/08/28 03:57:20;;;;;;;9.63;7.43;;;16.90;99.90;;;16.34;100.00;98205.56;4980429;28;20061;-67
2022/08/28 03:59:49;;;;;;;9.23;7.05;;;16.90;99.90;;;16.35;100.00;98201.19;4979227;28;20159;-68
2022/08/28 04:02:19;;;;;;;10.80;7.13;;;17.00;99.90;;;16.35;100.00;98196.78;4980266;28;20134;-66
2022/08/28 04:04:48;;;;;;;10.02;7.53;;;17.00;99.90;;;16.28;100.00;98204.16;4981389;28;20046;-67
2022/08/28 04:07:16;;;;;;;11.80;7.63;;;17.00;99.90;;;16.33;100.00;98205.66;4979073;28;20510;-68
2022/08/28 04:09:44;;;;;;;8.30;6.35;;;17.00;99.90;;;16.38;100.00;98211.50;4979083;28;20058;-68
2022/08/28 04:12:11;;;;;;;12.90;7.32;;;17.00;99.90;;;16.38;100.00;98217.59;4980521;28;20120;-67
2022/08/28 04:14:39;;;;;;;8.43;7.00;;;17.00;99.90;;;16.38;100.00;98222.81;4981042;28;20046;-67
2022/08/28 04:17:06;;;;;;;9.38;5.88;;;17.00;99.90;;;16.44;100.00;98227.69;4981029;28;20053;-68
2022/08/28 04:19:34;;;;;;;10.50;7.07;;;17.00;99.90;;;16.36;100.00;98218.59;4979053;28;20046;-68
2022/08/28 04:22:00;;;;;;;11.77;6.18;;;17.00;99.90;;;16.37;100.00;98226.34;4979417;28;20125;-67
2022/08/28 04:24:27;;;;;;;9.68;6.40;;;17.10;99.90;;;16.47;100.00;98229.31;4980499;28;20126;-68
2022/08/28 04:26:54;;;;;;;9.45;6.28;;;17.10;99.90;;;16.45;100.00;98218.09;4977841;28;20451;-67
2022/08/28 04:29:22;;;;;;;13.57;7.35;;;17.20;99.90;;;16.36;100.00;98224.69;4975295;28;20158;-68
2022/08/28 04:31:49;;;;;;;10.57;6.25;;;17.10;99.90;;;16.40;100.00;98218.34;4970793;28;20722;-68
2022/08/28 04:34:16;;;;;;;13.25;6.70;;;17.10;99.90;;;16.27;100.00;98225.19;4971885;28;20046;-68
2022/08/28 04:36:45;;;;;;;10.80;6.85;;;17.10;99.90;;;16.33;100.00;98222.25;4969851;28;20859;-67
2022/08/28 04:39:12;;;;;;;11.35;7.32;;;17.00;99.90;;;16.34;100.00;98217.84;4973744;28;20047;-68
2022/08/28 04:41:39;;;;;;;10.77;7.30;;;17.10;99.90;;;16.35;100.00;98214.28;4974139;28;20055;-67
2022/08/28 04:44:07;;;;;;;10.82;5.78;;;17.00;99.90;;;16.38;100.00;98225.44;4973886;28;20169;-67
2022/08/28 04:46:35;;;;;;;12.55;7.45;;;17.00;99.90;;;16.35;100.00;98219.50;4980507;28;20050;-67
2022/08/28 04:49:03;;;;;;;9.27;6.82;;;17.00;99.90;;;16.44;100.00;98229.47;4977385;28;20599;-68
2022/08/28 04:51:31;;;;;;;9.18;6.63;;;17.00;99.90;;;16.54;100.00;98229.81;4975347;28;20078;-68
2022/08/28 04:54:00;;;;;;;9.23;6.40;;;17.10;99.90;;;16.45;100.00;98237.25;4980512;28;20057;-68
2022/08/28 04:56:28;;;;;;;8.75;5.95;;;17.10;99.90;;;16.60;100.00;98235.53;4979159;28;20400;-68
2022/08/28 04:58:55;;;;;;;7.72;6.15;;;17.20;99.90;;;16.55;100.00;98234.97;4978700;28;20092;-68
2022/08/28 05:01:23;;;;;;;9.40;6.07;;;17.10;99.90;;;16.55;100.00;98239.38;4975504;28;20457;-67
2022/08/28 05:03:58;;;;;;;9.27;6.18;;;17.20;99.90;;;16.50;100.00;98237.00;4978629;28;20053;-68
2022/08/28 05:06:28;;;;;;;7.07;5.55;;;17.20;99.90;;;16.66;100.00;98234.38;4978877;28;20062;-68
2022/08/28 05:09:00;;;;;;;11.85;6.10;;;17.20;99.90;;;16.58;100.00;98229.56;4980292;28;20056;-68
2022/08/28 05:11:30;;;;;;;9.85;6.30;;;17.20;99.90;;;16.56;100.00;98241.91;4980183;28;20141;-68
2022/08/28 05:14:03;;;;;;;7.10;5.38;;;17.20;99.90;;;16.63;100.00;98239.78;4978694;28;20050;-68
2022/08/28 05:16:33;;;;;;;8.63;5.13;;;17.20;99.90;;;16.61;100.00;98239.03;4981188;28;20133;-68
2022/08/28 05:19:01;;;;;;;7.97;5.30;;;17.40;99.90;;;16.66;100.00;98243.06;4981023;28;20046;-68
2022/08/28 05:21:28;;;;;;;8.05;4.70;;;17.40;99.90;;;16.62;100.00;98244.16;4982416;28;20103;-68
2022/08/28 05:23:56;;;;;;;9.88;5.30;;;17.40;99.90;;;16.60;100.00;98240.78;4983406;28;20501;-68
2022/08/28 05:26:24;;;;;;;10.55;5.43;;;17.40;99.90;;;16.65;100.00;98238.78;4983223;28;20425;-68
2022/08/28 05:28:56;;;;;;;6.87;4.70;;;17.40;99.90;;;16.73;100.00;98240.94;4981966;28;20148;-68
2022/08/28 05:31:25;;;;;;;10.70;5.78;;;17.40;99.90;;;16.72;100.00;98245.34;4985707;28;20130;-68
2022/08/28 05:33:52;;;;;;;9.07;5.85;;;17.40;99.90;;;16.67;100.00;98243.91;4983610;28;20424;-68
2022/08/28 05:36:23;;;;;;;13.40;6.68;;;17.40;99.90;;;16.56;100.00;98248.91;4980300;28;20133;-67
2022/08/28 05:38:56;;;;;;;8.95;6.50;;;17.50;99.90;;;16.69;100.00;98249.91;4983246;28;20123;-68
2022/08/28 05:41:31;;;;;;;7.47;6.10;;;17.50;99.90;;;16.85;100.00;98252.53;4981682;28;20050;-68
2022/08/28 05:44:03;;;;;;;11.63;6.05;;;17.50;99.90;;;16.91;100.00;98255.66;4981111;28;20051;-68
2022/08/28 05:46:31;;;;;;;9.50;5.80;;;17.50;99.90;;;16.88;100.00;98255.84;4994095;28;20158;-67
2022/08/28 05:49:01;;;;;;;9.70;6.25;;;17.60;99.90;;;16.91;100.00;98257.44;4982556;28;20050;-68
2022/08/28 05:51:34;;;;;;;11.73;5.85;;;17.70;99.90;;;16.88;100.00;98255.00;4979816;28;20146;-67
2022/08/28 05:54:02;;;;;;;6.05;5.15;;;17.70;99.90;;;17.04;100.00;98255.78;4976005;28;20060;-68
2022/08/28 05:56:34;;;;;;;9.88;5.88;;;17.70;99.90;;;17.04;100.00;98247.09;4978593;28;20054;-68
2022/08/28 05:59:03;;;;;;;7.80;5.20;;;17.80;99.90;;;17.12;100.00;98250.94;4980926;28;20678;-68
2022/08/28 06:01:33;;;;;;;8.23;5.97;;;17.80;99.90;;;17.02;100.00;98256.81;4982778;28;20038;-67
2022/08/28 06:04:09;;;;;;;10.60;5.55;;;17.80;99.90;;;17.04;100.00;98247.94;4980315;28;20042;-67
2022/08/28 06:06:38;;;;;;;6.57;4.78;;;17.70;99.90;;;17.27;100.00;98251.00;4970982;28;20041;-67
2022/08/28 06:09:18;;;;;;;9.02;5.57;;;17.80;99.90;;;17.19;100.00;98253.19;4986324;28;20060;-67
2022/08/28 06:11:46;;;;;;;6.80;5.30;;;17.90;99.90;;;17.18;100.00;98255.00;4985466;28;20137;-68
2022/08/28 06:14:18;;;;;;;7.90;5.88;;;17.90;99.90;;;17.02;100.00;98254.19;5003502;28;20469;-68
2022/08/28 06:16:53;;;;;;;10.10;5.43;;;18.00;99.90;;;17.18;100.00;98262.84;4984795;28;20551;-67
2022/08/28 06:19:23;;;;;;;8.55;6.00;;;18.00;99.90;;;17.18;100.00;98262.84;4983664;28;20038;-67
2022/08/28 06:21:53;;;;;;;11.52;5.45;;;17.90;99.90;;;17.35;100.00;98262.69;4983883;28;20062;-67
2022/08/28 06:24:20;;;;;;;8.27;5.65;;;18.00;99.90;;;17.29;100.00;98264.88;4986766;28;20218;-68
2022/08/28 06:26:47;;;;;;;10.10;5.30;;;18.10;99.90;;;17.26;100.00;98265.03;4986292;28;20153;-67
2022/08/28 06:29:17;;;;;;;7.68;5.53;;;18.00;99.90;;;17.24;100.00;98261.63;4985686;28;20956;-68
2022/08/28 06:31:51;;;;;;;;;;;17.90;99.90;;;17.10;100.00;98260.66;4988258;28;20057;-68
2022/08/28 06:34:18;;;;;;;7.65;5.28;;;17.90;99.90;;;17.08;100.00;98262.56;4985885;28;20008;-68
2022/08/28 06:36:45;;;;;;;8.25;4.97;;;17.90;99.90;;;17.24;100.00;98272.13;4987140;28;20387;-68
2022/08/28 06:39:19;;;;;;;10.43;5.47;;;17.90;99.90;;;17.27;100.00;98262.31;4988863;28;20076;-68
2022/08/28 06:41:46;;;;;;;8.02;5.22;;;18.00;99.90;;;17.32;100.00;98262.06;4988791;28;20224;-68
2022/08/28 06:44:19;;;;;;;7.50;5.13;;;18.10;99.90;;;17.36;100.00;98258.31;4987434;28;20050;-68
2022/08/28 06:46:49;;;;;;;7.90;4.68;;;18.10;99.90;;;17.48;100.00;98254.09;5001405;28;20129;-68
2022/08/28 06:49:19;;;;;;;7.57;4.80;;;18.20;99.90;;;17.57;100.00;98256.19;4986266;28;20129;-69
2022/08/28 06:51:46;;;;;;;10.80;4.97;;;18.30;99.90;;;17.50;100.00;98249.63;4983199;28;20469;-68
2022/08/28 06:54:16;;;;;;;8.80;5.00;;;18.40;99.90;;;17.55;100.00;98240.50;5000574;28;20061;-67
2022/08/28 06:56:48;;;;;;;8.80;4.50;;;18.40;99.90;;;17.63;100.00;98239.19;4983367;28;20055;-68
2022/08/28 06:59:15;;;;;;;7.72;4.50;;;18.40;99.90;;;17.88;100.00;98233.31;4982978;28;20134;-68
2022/08/28 07:01:42;;;;;;;8.93;5.00;;;18.50;99.90;;;17.87;100.00;98232.47;4984933;28;20512;-68
2022/08/28 07:04:12;;;;;;;7.65;3.92;;;18.80;99.90;;;18.28;100.00;98236.94;4985149;28;20050;-68
2022/08/28 07:06:44;;;;;;;6.70;3.88;;;19.00;99.90;;;18.29;100.00;98222.00;4984356;28;20062;-67
2022/08/28 07:09:13;;;;;;;10.30;4.57;;;19.00;99.90;;;18.09;100.00;98220.66;4985501;28;20064;-68
2022/08/28 07:11:44;;;;;;;7.90;3.97;;;19.00;99.90;;;18.16;100.00;98225.41;4986803;28;20349;-68
2022/08/28 07:14:11;;;;;;;7.35;3.72;;;19.10;99.90;;;18.13;100.00;98222.13;4988209;28;20057;-68
2022/08/28 07:16:39;;;;;;;8.07;3.92;;;19.20;99.90;;;18.08;100.00;98222.41;4986549;28;20054;-68
2022/08/28 07:19:09;;;;;;;8.63;3.80;;;19.00;99.90;;;18.19;100.00;98216.50;4985851;28;20137;-67
2022/08/28 07:21:40;;;;;;;8.13;4.28;;;19.10;99.90;;;18.39;100.00;98204.72;5000988;28;20062;-67
2022/08/28 07:24:10;;;;;;;8.68;4.03;;;19.20;99.90;;;18.35;100.00;98196.16;4982752;28;20050;-68
2022/08/28 07:26:40;;;;;;;7.85;3.92;;;19.40;99.90;;;18.53;100.00;98203.81;4982864;28;20077;-67
2022/08/28 07:29:07;;;;;;;9.95;4.18;;;19.70;99.90;;;18.53;100.00;98183.63;4982140;28;20050;-68
2022/08/28 07:31:44;;;;;;;11.50;4.18;;;19.80;99.90;;;18.64;100.00;98187.34;4981679;28;20069;-68
2022/08/28 07:34:14;;;;;;;6.57;3.78;;;19.80;99.90;;;18.60;100.00;98177.00;4984479;28;20412;-68
2022/08/28 07:36:41;;;;;;;7.68;3.30;;;19.70;99.90;;;18.65;100.00;98179.34;5000512;28;20133;-67
2022/08/28 07:39:10;;;;;;;6.82;3.22;;;19.60;99.90;;;19.00;100.00;98184.94;4982287;28;20449;-68
2022/08/28 07:41:41;;;;;;;6.03;3.17;;;19.90;99.90;;;19.01;100.00;98183.13;4980012;28;20137;-68
2022/08/28 07:47:02;;;;;;;7.18;3.17;;;20.30;99.90;;;19.25;100.00;98154.31;4975292;28;20097;-68
2022/08/28 07:49:32;;;;;;;7.03;3.08;;;20.40;99.90;;;19.25;100.00;98158.72;4976071;28;20058;-68
2022/08/28 07:52:00;;;;;;;7.80;3.20;;;20.50;99.90;;;19.14;100.00;98162.09;4974668;28;20055;-68
2022/08/28 07:54:27;;;;;;;5.88;3.00;;;20.30;99.90;;;19.32;100.00;98165.28;4973476;28;20054;-68
2022/08/28 07:56:54;;;;;;;8.93;3.75;;;20.30;99.90;;;19.11;100.00;98151.78;4972655;28;20051;-69
2022/08/28 07:59:21;;;;;;;8.27;3.13;;;20.20;99.90;;;19.00;100.00;98152.53;4973960;28;20141;-67
2022/08/28 08:01:50;;;;;;;9.32;3.65;;;20.20;99.90;;;19.04;100.00;98169.75;4984076;28;20446;-67
2022/08/28 08:04:19;;;;;;;7.07;3.00;;;20.20;99.90;;;19.01;100.00;98168.19;4977354;28;20078;-68
2022/08/28 08:06:46;;;;;;;9.63;3.40;;;20.20;99.90;;;19.09;100.00;98175.56;4982331;28;20145;-68
2022/08/28 08:09:20;;;;;;;6.13;2.58;;;20.10;99.90;;;19.39;100.00;98169.16;4984070;28;20161;-68
2022/08/28 08:11:48;;;;;;;11.13;3.20;;;20.20;99.90;;;19.11;100.00;98168.44;4985252;28;20132;-69
2022/08/28 08:14:16;;;;;;;7.00;2.63;;;20.20;99.90;;;19.30;100.00;98164.53;4984817;28;20085;-68
2022/08/28 08:16:45;;;;;;;11.10;3.00;;;20.30;99.90;;;19.39;100.00;98163.91;4982496;28;20488;-68
2022/08/28 08:19:15;;;;;;;6.97;2.88;;;20.30;99.90;;;19.35;100.00;98179.06;4982686;28;20046;-69
2022/08/28 08:21:45;;;;;;;7.60;2.85;;;20.50;99.90;;;19.35;100.00;98168.53;4983686;28;20449;-69
2022/08/28 08:24:19;;;;;;;6.50;2.47;;;20.60;99.90;;;19.44;100.00;98173.16;4982430;28;20097;-68
2022/08/28 08:26:48;;;;;;;10.75;3.20;;;20.50;99.90;;;19.43;100.00;98170.63;4984025;28;20046;-69
2022/08/28 08:29:31;;;;;;;6.68;2.83;;;20.50;99.90;;;19.50;100.00;98150.84;4983034;28;20078;-68
2022/08/28 08:32:03;;;;;;;;;;;20.60;99.90;;;19.50;100.00;98140.31;4983250;28;20197;-69
2022/08/28 08:34:38;;;;;;;7.55;2.63;;;20.90;99.90;;;19.63;100.00;98130.56;4987175;28;19988;-68
2022/08/28 08:37:06;;;;;;;6.97;2.38;;;20.90;99.90;;;19.72;100.00;98125.63;4982273;28;20060;-68
2022/08/28 08:39:35;;;;;;;10.50;3.15;;;20.90;99.90;;;19.55;100.00;98122.38;4984875;28;20539;-68
2022/08/28 08:42:08;;;;;;;9.13;2.58;;;20.70;99.90;;;19.81;100.00;98117.06;4983506;28;20155;-69
2022/08/28 08:44:40;;;;;;;7.63;2.50;;;20.80;99.90;;;19.85;100.00;98115.91;4995730;28;20540;-69
2022/08/28 08:47:16;;;;;;;8.73;2.58;;;20.70;99.90;;;19.77;100.00;98116.44;4999414;28;20699;-69
2022/08/28 08:49:56;;;;;;;11.55;2.67;;;20.80;99.90;;;19.73;100.00;98103.59;4982438;28;20453;-68
2022/08/28 08:53:06;;;;;;;9.82;2.80;;;20.70;99.90;;;19.79;100.00;98109.28;4983313;28;20416;-69
2022/08/28 08:55:43;;;;;;;9.65;2.55;;;20.70;99.90;;;19.91;100.00;98109.34;4985390;28;20065;-69
2022/08/28 08:58:43;;;;;;;9.95;3.03;;;20.90;99.90;;;20.27;100.00;98101.41;4984310;28;20046;-68
2022/08/28 09:01:38;;;;;;;9.82;2.58;;;21.00;99.90;;;20.21;100.00;98098.38;4999221;28;20074;-68
2022/08/28 09:04:30;;;;;;;12.68;2.88;;;21.30;99.90;;;20.05;100.00;98096.88;4988068;28;20150;-69
2022/08/28 09:07:09;;;;;;;9.23;2.85;;;21.10;99.90;;;19.92;100.00;98103.97;5002322;28;20237;-69
2022/08/28 09:09:54;;;;;;;9.63;2.67;;;21.00;99.90;;;19.70;100.00;98114.38;5003242;28;20051;-66
2022/08/28 09:12:25;;;;;;;9.88;3.28;;;21.00;99.90;;;19.92;100.00;98111.03;4987111;28;20137;-68
2022/08/28 09:15:08;;;;;;;12.43;2.50;;;21.10;99.90;;;20.06;100.00;98105.59;5003204;28;20160;-69
2022/08/28 09:17:41;;;;;;;7.78;2.13;;;21.10;99.90;;;20.23;100.00;98097.31;5001832;28;20495;-69
2022/08/28 09:20:11;;;;;;;8.50;3.03;;;21.10;99.90;;;20.08;100.00;98087.06;5004361;28;20132;-69
2022/08/28 09:22:44;;;;;;;10.80;2.85;;;21.10;99.90;;;20.28;100.00;98091.69;4988073;28;20701;-68
2022/08/28 09:25:44;;;;;;;11.45;2.65;;;21.10;99.90;;;20.51;100.00;98097.06;4988177;28;20434;-68
2022/08/28 09:28:21;;;;;;;6.03;2.17;;;21.20;99.90;;;20.47;100.00;98084.09;4987305;28;20140;-67
2022/08/28 09:31:09;;;;;;;9.90;3.22;;;21.40;99.90;;;20.25;100.00;98087.50;4986154;28;20217;-68
2022/08/28 09:33:44;;;;;;;10.10;2.78;;;21.30;99.90;;;20.79;100.00;98082.66;4986614;28;20430;-68
2022/08/28 09:36:30;;;;;;;4.85;2.22;;;21.50;99.90;;;21.13;100.00;98051.03;5003267;28;20050;-68
2022/08/28 09:39:06;;;;;;;15.43;2.83;;;21.70;99.90;;;21.18;100.00;98048.84;4983163;28;20487;-67
2022/08/28 09:45:18;;;;;;;8.43;2.55;;;22.30;99.90;;;20.99;100.00;98039.75;4986895;28;20584;-68
2022/08/28 09:47:55;;;;;;;7.97;2.83;;;22.10;99.90;;;20.96;100.00;98049.69;4978830;28;20495;-68
2022/08/28 09:50:30;;;;;;;9.52;2.20;;;22.20;99.90;;;21.54;100.00;98036.38;5001645;28;20137;-69
2022/08/28 09:53:19;;;;;;;11.40;2.25;;;22.60;99.90;;;21.44;100.00;98002.78;4980708;28;20149;-68
2022/08/28 09:56:16;;;;;;;9.35;2.55;;;22.70;99.90;;;21.89;100.00;98015.84;5004073;28;20515;-69
2022/08/28 09:58:52;;;;;;;9.57;2.72;;;23.00;99.90;;;21.92;100.00;98004.22;4976781;28;20449;-67
2022/08/28 10:01:33;;;;;;;7.35;2.50;;;23.30;99.90;;;21.95;100.00;97987.25;4979922;28;20138;-68
2022/08/28 10:04:47;;;;;;;7.93;2.50;;;23.40;99.90;;;21.42;100.00;97986.22;4979297;28;20066;-68
2022/08/28 10:07:40;;;;;;;12.93;2.80;;;23.20;99.90;;;21.36;100.00;97986.66;4976665;28;20305;-69
2022/08/28 10:10:41;;;;;;;9.15;3.50;;;23.00;99.90;;;22.20;100.00;97983.41;4981885;28;20401;-69
2022/08/28 10:13:17;;;;;;;6.55;2.28;;;23.20;99.90;;;23.08;100.00;97942.38;4982423;28;20138;-68
2022/08/28 10:16:02;;;;;;;12.05;2.45;;;23.50;99.90;;;23.83;100.00;97919.78;4981614;28;20057;-68
2022/08/28 10:19:02;;;;;;;8.90;2.47;;;24.00;99.90;;;23.73;100.00;97889.78;4983964;28;20042;-69
2022/08/28 10:21:47;;;;;;;8.18;2.42;;;24.40;99.90;;;23.89;100.00;97882.09;4984690;28;20055;-69
2022/08/28 10:24:35;;;;;;;8.63;2.22;;;24.80;99.90;;;24.53;100.00;97880.56;4986227;28;20050;-69
2022/08/28 10:27:34;;;;;;;8.88;2.28;;;25.10;99.90;;;25.73;100.00;97821.06;4984387;28;20054;-68
2022/08/28 10:30:10;;;;;;;6.97;2.45;;;25.60;99.90;;;24.73;100.00;97824.75;4985231;28;20164;-69
2022/08/28 10:33:05;;;;;;;7.63;2.10;;;25.30;99.90;;;24.80;100.00;97834.63;4983583;28;20101;-68
2022/08/28 10:35:56;;;;;;;10.50;2.88;;;25.70;99.90;;;23.66;100.00;97844.44;4983775;28;20137;-66
2022/08/28 10:38:44;;;;;;;8.80;2.25;;;25.00;99.90;;;23.74;100.00;97860.53;5000556;28;20525;-69
2022/08/28 10:41:35;;;;;;;8.80;2.47;;;25.40;99.90;;;23.87;100.00;97848.78;4986570;28;20141;-69